Time;durP1;ratioP1;P1;durP2;ratioP2;P2;SDS_P1;SDS_P2;PMS_P1;PMS_P2;Temp;Humidity;BMP_temperature;BMP_pressure;BME280_temperature;BME280_humidity;BME280_pressure;Samples;Min_cycle;Max_cycle;Signal;HPM_P1;HPM_P2
2021/12/15 00:02:18;;;;;;;16.07;10.50;;;10.20;99.90;;;;;;4979983;28;21045;-70
2021/12/15 00:04:45;;;;;;;35.43;11.33;;;10.20;99.90;;;;;;4984815;28;20493;-71
2021/12/15 00:07:14;;;;;;;21.10;10.17;;;10.30;99.90;;;;;;4986580;28;20497;-71
2021/12/15 00:09:41;;;;;;;22.73;9.43;;;10.30;99.90;;;;;;4977995;28;21068;-72
2021/12/15 00:12:09;;;;;;;18.43;8.70;;;10.20;99.90;;;;;;4970061;28;20498;-72
2021/12/15 00:14:37;;;;;;;19.03;8.53;;;10.20;99.90;;;;;;4972071;28;20568;-69
2021/12/15 00:17:04;;;;;;;17.73;10.27;;;10.30;99.90;;;;;;4971656;28;20552;-69
2021/12/15 00:19:33;;;;;;;26.93;10.60;;;10.20;99.90;;;;;;4972981;28;20550;-70
2021/12/15 00:22:01;;;;;;;17.43;10.00;;;10.30;99.90;;;;;;4972453;28;20493;-70
2021/12/15 00:24:28;;;;;;;20.20;9.13;;;10.30;99.90;;;;;;4964072;28;20451;-69
2021/12/15 00:26:56;;;;;;;19.47;11.40;;;10.20;99.90;;;;;;4972149;28;20441;-70
2021/12/15 00:29:24;;;;;;;21.13;11.30;;;10.20;99.90;;;;;;4977413;28;20549;-69
2021/12/15 00:31:51;;;;;;;20.67;10.63;;;10.20;99.90;;;;;;4974552;28;20464;-70
2021/12/15 00:34:20;;;;;;;19.40;10.20;;;10.20;99.90;;;;;;4972677;28;20479;-69
2021/12/15 00:36:49;;;;;;;20.00;7.70;;;10.10;99.90;;;;;;4976146;28;20449;-68
2021/12/15 00:39:18;;;;;;;12.73;6.70;;;10.10;99.90;;;;;;4973437;28;20641;-69
2021/12/15 00:41:46;;;;;;;30.30;12.37;;;10.20;99.90;;;;;;4975660;28;20433;-69
2021/12/15 00:44:14;;;;;;;21.43;9.37;;;10.20;99.90;;;;;;4973942;28;20552;-69
2021/12/15 00:46:41;;;;;;;17.07;8.93;;;10.20;99.90;;;;;;4973957;28;20465;-70
2021/12/15 00:49:09;;;;;;;17.73;7.43;;;10.20;99.90;;;;;;4979069;28;21268;-69
2021/12/15 00:51:37;;;;;;;19.83;10.63;;;10.20;99.90;;;;;;4977113;28;21002;-69
2021/12/15 00:54:06;;;;;;;16.17;7.87;;;10.20;99.90;;;;;;4974353;28;21010;-69
2021/12/15 00:56:34;;;;;;;21.07;10.23;;;10.10;99.90;;;;;;4962537;28;20900;-69
2021/12/15 00:59:02;;;;;;;15.93;7.80;;;10.20;99.90;;;;;;4974908;28;20575;-69
2021/12/15 01:01:29;;;;;;;20.17;11.73;;;10.10;99.90;;;;;;4967252;28;20470;-69
2021/12/15 01:03:56;;;;;;;19.13;8.50;;;10.20;99.90;;;;;;4969794;28;20523;-69
2021/12/15 01:06:23;;;;;;;17.30;8.37;;;10.10;99.90;;;;;;4966125;28;20493;-71
2021/12/15 01:08:55;;;;;;;14.13;7.70;;;10.00;99.90;;;;;;4967893;28;20489;-67
2021/12/15 01:11:34;;;;;;;11.57;7.77;;;10.00;99.90;;;;;;4973979;28;20462;-71
2021/12/15 01:19:49;;;;;;;10.93;6.50;;;10.10;99.90;;;;;;4968926;28;20497;-72
2021/12/15 01:22:21;;;;;;;20.50;10.30;;;10.10;99.90;;;;;;4975877;28;20603;-69
2021/12/15 01:24:48;;;;;;;15.00;9.60;;;10.20;99.90;;;;;;4967216;28;20898;-69
2021/12/15 01:27:17;;;;;;;10.13;6.20;;;10.10;99.90;;;;;;4977588;28;20483;-69
2021/12/15 01:29:44;;;;;;;16.23;8.20;;;10.00;99.90;;;;;;4975017;28;22111;-67
2021/12/15 01:32:11;;;;;;;15.90;7.17;;;10.00;99.90;;;;;;4969913;28;21088;-70
2021/12/15 01:34:38;;;;;;;10.90;7.23;;;10.00;99.90;;;;;;4966674;28;20482;-70
2021/12/15 01:37:06;;;;;;;17.53;7.43;;;10.00;99.90;;;;;;4961817;28;20433;-69
2021/12/15 01:39:33;;;;;;;14.37;7.63;;;10.00;99.90;;;;;;4971057;28;20477;-69
2021/12/15 01:42:01;;;;;;;14.30;7.57;;;10.00;99.90;;;;;;4972597;28;20494;-69
2021/12/15 01:47:14;;;;;;;10.97;7.60;;;10.10;99.90;;;;;;4971446;28;20472;-69
2021/12/15 01:49:44;;;;;;;9.07;6.23;;;10.00;99.90;;;;;;4978968;28;20959;-70
2021/12/15 01:52:14;;;;;;;13.07;7.27;;;9.90;99.90;;;;;;4981079;28;20519;-69
2021/12/15 01:54:44;;;;;;;16.57;8.80;;;10.00;99.90;;;;;;4992388;28;20488;-71
2021/12/15 01:57:14;;;;;;;9.93;6.73;;;9.90;99.90;;;;;;4977023;28;20469;-68
2021/12/15 01:59:44;;;;;;;12.53;8.17;;;9.90;99.90;;;;;;4977412;28;20552;-70
2021/12/15 02:02:12;;;;;;;15.23;8.97;;;9.90;99.90;;;;;;4973128;28;21019;-70
2021/12/15 02:04:39;;;;;;;14.93;7.30;;;9.90;99.90;;;;;;4967787;28;20452;-70
2021/12/15 02:07:11;;;;;;;18.87;9.63;;;10.00;99.90;;;;;;4965193;28;20482;-70
2021/12/15 02:10:01;;;;;;;12.53;7.53;;;10.00;99.90;;;;;;4972730;28;20465;-71
2021/12/15 02:12:33;;;;;;;8.33;6.13;;;10.20;99.90;;;;;;4970516;28;20448;-69
2021/12/15 02:15:05;;;;;;;8.90;5.60;;;10.30;99.90;;;;;;4972837;28;20467;-70
2021/12/15 02:17:32;;;;;;;11.63;6.50;;;10.20;99.90;;;;;;4977682;28;20582;-71
2021/12/15 02:19:59;;;;;;;11.40;9.50;;;10.20;99.90;;;;;;4970900;28;20492;-69
2021/12/15 02:22:29;;;;;;;11.20;7.07;;;10.20;99.90;;;;;;4974705;28;20490;-69
2021/12/15 02:24:56;;;;;;;14.00;7.50;;;10.20;99.90;;;;;;4963983;28;20482;-69
2021/12/15 02:27:30;;;;;;;10.50;7.23;;;10.20;99.90;;;;;;4963027;28;20464;-70
2021/12/15 02:30:03;;;;;;;13.33;6.87;;;10.10;99.90;;;;;;4971860;28;20553;-70
2021/12/15 02:32:41;;;;;;;19.83;7.40;;;10.10;99.90;;;;;;4968573;28;20531;-69
2021/12/15 02:37:57;;;;;;;7.93;5.73;;;10.00;99.90;;;;;;4961908;28;20447;-69
2021/12/15 02:40:24;;;;;;;17.77;7.87;;;10.00;99.90;;;;;;4963695;28;20520;-69
2021/12/15 02:42:51;;;;;;;20.47;7.30;;;10.00;99.90;;;;;;4972953;28;20448;-69
2021/12/15 02:45:20;;;;;;;10.50;6.05;;;9.90;99.90;;;;;;4968892;28;20981;-70
2021/12/15 02:47:49;;;;;;;10.60;6.30;;;10.00;99.90;;;;;;4976819;28;20462;-70
2021/12/15 02:50:19;;;;;;;11.87;7.40;;;10.00;99.90;;;;;;4974218;28;21138;-70
2021/12/15 02:52:47;;;;;;;16.90;7.70;;;10.10;99.90;;;;;;4973687;28;20437;-72
2021/12/15 02:55:17;;;;;;;12.50;6.60;;;10.10;99.90;;;;;;4967869;28;20485;-68
2021/12/15 02:57:47;;;;;;;15.23;6.73;;;10.10;99.90;;;;;;4972482;28;20497;-70
2021/12/15 03:00:21;;;;;;;9.17;6.50;;;10.00;99.90;;;;;;4977181;28;20473;-69
2021/12/15 03:03:20;;;;;;;14.10;8.10;;;10.00;99.90;;;;;;4974316;28;20471;-69
2021/12/15 03:05:51;;;;;;;9.27;6.03;;;10.00;99.90;;;;;;4964958;28;21117;-69
2021/12/15 03:08:22;;;;;;;12.47;5.50;;;10.00;99.90;;;;;;4971012;28;20462;-70
2021/12/15 03:16:24;;;;;;;5.27;2.73;;;10.00;99.90;;;;;;4973595;28;20445;-71
2021/12/15 03:18:51;;;;;;;13.07;7.27;;;9.90;99.90;;;;;;4972943;28;20517;-72
2021/12/15 03:21:22;;;;;;;15.07;8.20;;;9.90;99.90;;;;;;4973372;28;20557;-69
2021/12/15 03:23:53;;;;;;;12.60;7.83;;;9.90;99.90;;;;;;4976930;28;20486;-70
2021/12/15 03:26:26;;;;;;;15.50;8.60;;;9.90;99.90;;;;;;4973174;28;20440;-69
2021/12/15 03:34:39;;;;;;;12.20;6.63;;;9.90;99.90;;;;;;4975521;28;20458;-70
2021/12/15 03:37:22;;;;;;;12.57;7.43;;;9.90;99.90;;;;;;4992611;28;20740;-69
2021/12/15 03:39:51;;;;;;;9.03;7.03;;;9.90;99.90;;;;;;4987740;28;24380;-68
2021/12/15 03:42:24;;;;;;;13.37;7.90;;;9.90;99.90;;;;;;4971148;28;20553;-69
2021/12/15 03:44:52;;;;;;;15.30;9.00;;;10.00;99.90;;;;;;4971003;28;20708;-69
2021/12/15 03:47:22;;;;;;;10.37;5.60;;;10.00;99.90;;;;;;4975952;28;20572;-70
2021/12/15 03:49:51;;;;;;;17.30;8.03;;;10.00;99.90;;;;;;4968817;28;20442;-68
2021/12/15 03:52:18;;;;;;;14.50;9.07;;;10.00;99.90;;;;;;4958667;28;20497;-69
2021/12/15 03:54:46;;;;;;;14.30;7.50;;;9.80;99.90;;;;;;4969287;28;20773;-70
2021/12/15 03:57:14;;;;;;;12.07;5.80;;;9.80;99.90;;;;;;4974617;28;22575;-69
2021/12/15 03:59:44;;;;;;;13.77;8.50;;;9.80;99.90;;;;;;4977246;28;20474;-69
2021/12/15 04:02:13;;;;;;;11.17;6.23;;;9.90;99.90;;;;;;4972863;28;20499;-69
2021/12/15 04:04:41;;;;;;;6.10;4.00;;;9.90;99.90;;;;;;4960704;28;20637;-70
2021/12/15 04:07:09;;;;;;;12.83;8.30;;;9.80;99.90;;;;;;4962300;28;20471;-70
2021/12/15 04:09:37;;;;;;;15.57;9.30;;;9.80;99.90;;;;;;4963345;28;20474;-70
2021/12/15 04:12:05;;;;;;;11.33;6.53;;;9.90;99.90;;;;;;4955930;28;20691;-69
2021/12/15 04:14:41;;;;;;;12.00;6.40;;;9.90;99.90;;;;;;4966722;28;20922;-69
2021/12/15 04:17:26;;;;;;;6.97;6.30;;;9.90;99.90;;;;;;4964670;28;20953;-70
2021/12/15 04:19:54;;;;;;;14.93;6.73;;;9.90;99.90;;;;;;4970631;28;20457;-69
2021/12/15 04:22:21;;;;;;;12.80;7.50;;;9.80;99.90;;;;;;4956048;28;21002;-68
2021/12/15 04:24:49;;;;;;;16.63;7.60;;;9.80;99.90;;;;;;4969847;28;20459;-70
2021/12/15 04:27:21;;;;;;;26.23;9.00;;;9.70;99.90;;;;;;4974337;28;20601;-69
2021/12/15 04:29:53;;;;;;;10.80;6.00;;;9.70;99.90;;;;;;4974506;28;20506;-72
2021/12/15 04:32:27;;;;;;;5.97;5.37;;;9.80;99.90;;;;;;4968401;28;20462;-70
2021/12/15 04:34:54;;;;;;;13.13;7.63;;;9.70;99.90;;;;;;4967532;28;20538;-70
2021/12/15 04:37:22;;;;;;;11.63;7.47;;;9.80;99.90;;;;;;4967825;28;20482;-71
2021/12/15 04:39:48;;;;;;;10.40;6.90;;;9.80;99.90;;;;;;4972698;28;20772;-69
2021/12/15 04:42:18;;;;;;;10.97;7.73;;;9.80;99.90;;;;;;4964310;28;20477;-71
2021/12/15 04:44:46;;;;;;;8.90;5.57;;;9.70;99.90;;;;;;4963545;28;21632;-68
2021/12/15 04:47:14;;;;;;;14.80;8.20;;;9.70;99.90;;;;;;4965717;28;20561;-69
2021/12/15 04:49:47;;;;;;;16.03;8.20;;;9.80;99.90;;;;;;4957206;28;20471;-70
2021/12/15 04:52:16;;;;;;;15.97;7.30;;;9.70;99.90;;;;;;4972407;28;20443;-70
2021/12/15 04:54:44;;;;;;;18.90;7.57;;;9.70;99.90;;;;;;4965203;28;20591;-69
2021/12/15 04:57:13;;;;;;;19.63;9.17;;;9.70;99.90;;;;;;4961005;28;20557;-70
2021/12/15 04:59:41;;;;;;;9.87;5.87;;;9.70;99.90;;;;;;4963360;28;20466;-70
2021/12/15 05:02:09;;;;;;;11.40;7.00;;;9.70;99.90;;;;;;4959600;28;20614;-71
2021/12/15 05:04:37;;;;;;;10.20;6.53;;;9.70;99.90;;;;;;4957977;28;20556;-69
2021/12/15 05:07:06;;;;;;;13.07;8.40;;;9.70;99.90;;;;;;4972736;28;21042;-69
2021/12/15 05:09:33;;;;;;;19.73;7.90;;;9.80;99.90;;;;;;4973415;28;20891;-71
2021/12/15 05:12:00;;;;;;;15.10;7.47;;;9.90;99.90;;;;;;4973733;28;20476;-70
2021/12/15 05:14:28;;;;;;;18.50;8.87;;;9.90;99.90;;;;;;4979163;28;20569;-71
2021/12/15 05:16:55;;;;;;;21.00;8.63;;;10.00;99.90;;;;;;4975273;28;20436;-71
2021/12/15 05:19:25;;;;;;;21.47;8.43;;;9.90;99.90;;;;;;4981829;28;20909;-71
2021/12/15 05:21:52;;;;;;;14.37;8.73;;;9.90;99.90;;;;;;4986046;28;20473;-72
2021/12/15 05:24:30;;;;;;;11.27;5.57;;;9.90;99.90;;;;;;4964414;28;20879;-71
2021/12/15 05:27:00;;;;;;;15.30;8.47;;;9.90;99.90;;;;;;4980838;28;20478;-70
2021/12/15 05:29:27;;;;;;;14.60;7.80;;;9.90;99.90;;;;;;4974569;28;20524;-70
2021/12/15 05:31:54;;;;;;;8.47;5.00;;;9.80;99.90;;;;;;4978529;28;20865;-68
2021/12/15 05:34:22;;;;;;;17.10;9.37;;;9.90;99.90;;;;;;4980066;28;20505;-68
2021/12/15 05:36:52;;;;;;;15.53;6.80;;;9.90;99.90;;;;;;4974468;28;20485;-70
2021/12/15 05:39:20;;;;;;;15.63;8.40;;;10.00;99.90;;;;;;4980282;28;20457;-72
2021/12/15 05:41:48;;;;;;;13.10;7.63;;;9.90;99.90;;;;;;4986718;28;20567;-70
2021/12/15 05:44:16;;;;;;;17.73;8.00;;;10.00;99.90;;;;;;4972688;28;20492;-72
2021/12/15 05:46:44;;;;;;;13.63;6.87;;;9.90;99.90;;;;;;4971208;28;20570;-70
2021/12/15 05:49:11;;;;;;;15.60;6.80;;;9.80;99.90;;;;;;4969481;28;20457;-70
2021/12/15 05:51:38;;;;;;;17.33;9.07;;;9.90;99.90;;;;;;4986779;28;20616;-70
2021/12/15 05:54:05;;;;;;;11.20;7.70;;;9.80;99.90;;;;;;4982172;28;20930;-71
2021/12/15 05:56:34;;;;;;;13.83;9.80;;;9.80;99.90;;;;;;4975449;28;20962;-69
2021/12/15 05:59:02;;;;;;;12.63;6.33;;;9.70;99.90;;;;;;4980890;28;20472;-71
2021/12/15 06:01:29;;;;;;;17.73;8.90;;;9.80;99.90;;;;;;4957267;28;20433;-71
2021/12/15 06:03:56;;;;;;;14.67;7.60;;;9.80;99.90;;;;;;4966864;28;20504;-72
2021/12/15 06:06:23;;;;;;;11.07;6.90;;;9.90;99.90;;;;;;4974632;28;20781;-69
2021/12/15 06:08:50;;;;;;;14.80;7.60;;;9.90;99.90;;;;;;4971507;28;21035;-70
2021/12/15 06:11:17;;;;;;;13.90;7.43;;;9.90;99.90;;;;;;4973269;28;20474;-69
2021/12/15 06:13:48;;;;;;;12.87;6.17;;;10.00;99.90;;;;;;4966927;28;20580;-70
2021/12/15 06:16:15;;;;;;;9.00;6.00;;;9.90;99.90;;;;;;4973615;28;20444;-70
2021/12/15 06:18:42;;;;;;;11.40;6.50;;;9.90;99.90;;;;;;4978505;28;20467;-70
2021/12/15 06:21:10;;;;;;;17.70;7.23;;;9.90;99.90;;;;;;4983326;28;20823;-69
2021/12/15 06:23:37;;;;;;;11.93;7.40;;;9.90;99.90;;;;;;4982885;28;20611;-69
2021/12/15 06:26:06;;;;;;;16.37;8.30;;;9.90;99.90;;;;;;4981642;28;20553;-69
2021/12/15 06:28:35;;;;;;;12.67;6.33;;;10.00;99.90;;;;;;4985798;28;20482;-70
2021/12/15 06:31:07;;;;;;;11.77;6.87;;;10.00;99.90;;;;;;4977940;28;20553;-70
2021/12/15 06:33:36;;;;;;;16.40;6.80;;;10.00;99.90;;;;;;4985181;28;20478;-71
2021/12/15 06:36:05;;;;;;;5.90;4.10;;;9.90;99.90;;;;;;4988388;28;21048;-70
2021/12/15 06:38:34;;;;;;;15.40;8.47;;;10.00;99.90;;;;;;4991620;28;20462;-69
2021/12/15 06:41:02;;;;;;;11.00;7.50;;;10.00;99.90;;;;;;4989806;28;20525;-69
2021/12/15 06:43:29;;;;;;;15.33;8.50;;;10.10;99.90;;;;;;4986198;28;20522;-69
2021/12/15 06:46:00;;;;;;;13.37;6.00;;;10.00;99.90;;;;;;4983603;28;20441;-70
2021/12/15 06:59:28;;;;;;;11.53;7.13;;;10.10;99.90;;;;;;4984380;28;20419;-69
2021/12/15 07:01:55;;;;;;;9.80;6.17;;;10.10;99.90;;;;;;4974466;28;20448;-69
2021/12/15 07:04:24;;;;;;;11.43;6.63;;;10.10;99.90;;;;;;4974828;28;20570;-69
2021/12/15 07:06:52;;;;;;;9.80;7.90;;;10.10;99.90;;;;;;4968732;28;20672;-69
2021/12/15 07:09:20;;;;;;;18.00;8.00;;;10.10;99.90;;;;;;4981712;28;20458;-71
2021/12/15 07:11:50;;;;;;;9.57;4.77;;;10.20;99.90;;;;;;4999698;28;20973;-72
2021/12/15 07:14:17;;;;;;;12.03;6.70;;;10.20;99.90;;;;;;4985385;28;20529;-68
2021/12/15 07:16:47;;;;;;;10.67;7.03;;;10.20;99.90;;;;;;4960033;28;21087;-70
2021/12/15 07:19:19;;;;;;;14.57;7.53;;;10.20;99.90;;;;;;4987467;28;20486;-70
2021/12/15 07:21:55;;;;;;;14.63;8.67;;;10.20;99.90;;;;;;4986293;28;20443;-72
2021/12/15 07:24:22;;;;;;;19.50;7.80;;;10.20;99.90;;;;;;4984979;28;20564;-70
2021/12/15 07:26:50;;;;;;;12.30;7.13;;;10.20;99.90;;;;;;4976381;28;20572;-69
2021/12/15 07:29:17;;;;;;;15.23;7.47;;;10.20;99.90;;;;;;4973418;28;20596;-69
2021/12/15 07:31:44;;;;;;;6.67;3.97;;;10.10;99.90;;;;;;4979968;28;20482;-69
2021/12/15 07:34:11;;;;;;;13.57;7.17;;;10.20;99.90;;;;;;4984000;28;20487;-70
2021/12/15 07:36:38;;;;;;;7.63;5.57;;;10.10;99.90;;;;;;4982158;28;20461;-70
2021/12/15 07:39:10;;;;;;;23.03;7.97;;;10.10;99.90;;;;;;4978365;28;20472;-69
2021/12/15 07:41:41;;;;;;;15.80;7.80;;;10.20;99.90;;;;;;4990131;28;20940;-71
2021/12/15 07:44:08;;;;;;;16.07;7.60;;;10.20;99.90;;;;;;4981806;28;20524;-73
2021/12/15 07:46:35;;;;;;;12.63;7.10;;;10.10;99.90;;;;;;4986118;28;20477;-71
2021/12/15 07:49:02;;;;;;;15.77;8.07;;;10.30;99.90;;;;;;4990377;28;20907;-70
2021/12/15 07:51:29;;;;;;;17.23;7.40;;;10.30;99.90;;;;;;4990869;28;20899;-69
2021/12/15 07:53:56;;;;;;;12.67;8.00;;;10.20;99.90;;;;;;4989960;28;20453;-69
2021/12/15 07:56:25;;;;;;;12.33;7.57;;;10.10;99.90;;;;;;4983533;28;20470;-70
2021/12/15 07:58:52;;;;;;;14.10;7.30;;;10.10;99.90;;;;;;4991628;28;20425;-71
2021/12/15 08:01:20;;;;;;;13.43;6.67;;;10.10;99.90;;;;;;4986176;28;20504;-71
2021/12/15 08:03:51;;;;;;;14.23;6.63;;;10.10;99.90;;;;;;4979165;28;20490;-71
2021/12/15 08:06:18;;;;;;;21.87;9.40;;;10.10;99.90;;;;;;4982213;28;20886;-70
2021/12/15 08:08:45;;;;;;;11.10;6.77;;;10.20;99.90;;;;;;4987290;28;20564;-72
2021/12/15 08:11:12;;;;;;;14.13;6.70;;;10.30;99.90;;;;;;4988108;28;20515;-68
2021/12/15 08:13:41;;;;;;;15.10;7.00;;;10.30;99.90;;;;;;4987150;28;20526;-69
2021/12/15 08:16:08;;;;;;;10.40;5.97;;;10.20;99.90;;;;;;4990125;28;21006;-71
2021/12/15 08:18:35;;;;;;;11.07;7.20;;;10.20;99.90;;;;;;4988455;28;20493;-70
2021/12/15 08:21:05;;;;;;;10.33;4.93;;;10.30;99.90;;;;;;4994714;28;20947;-70
2021/12/15 08:23:33;;;;;;;13.10;5.93;;;10.40;99.90;;;;;;4989771;28;20492;-70
2021/12/15 08:26:00;;;;;;;9.83;7.53;;;10.30;99.90;;;;;;4986654;28;20458;-70
2021/12/15 08:28:27;;;;;;;17.53;6.27;;;10.30;99.90;;;;;;4989677;28;20883;-69
2021/12/15 08:30:56;;;;;;;12.50;7.07;;;10.40;99.90;;;;;;4983719;28;20974;-69
2021/12/15 08:33:25;;;;;;;9.70;3.87;;;10.40;99.90;;;;;;4972918;28;20469;-70
2021/12/15 08:35:56;;;;;;;8.13;6.23;;;10.40;99.90;;;;;;4958253;28;20433;-69
2021/12/15 08:38:24;;;;;;;12.13;6.90;;;10.30;99.90;;;;;;4971808;28;20994;-68
2021/12/15 08:40:52;;;;;;;9.83;5.70;;;10.30;99.90;;;;;;4982870;28;21183;-69
2021/12/15 08:43:20;;;;;;;12.50;6.30;;;10.30;99.90;;;;;;4989467;28;20718;-69
2021/12/15 08:45:54;;;;;;;4.57;4.07;;;10.30;99.90;;;;;;4987578;28;20445;-71
2021/12/15 08:48:23;;;;;;;13.07;6.77;;;10.40;99.90;;;;;;4987723;28;20478;-69
2021/12/15 08:50:50;;;;;;;14.23;6.80;;;10.30;99.90;;;;;;4987034;28;20552;-70
2021/12/15 08:53:17;;;;;;;8.70;6.57;;;10.20;99.90;;;;;;4990354;28;20485;-69
2021/12/15 08:55:47;;;;;;;5.77;4.63;;;10.30;99.90;;;;;;4994874;28;21041;-69
2021/12/15 08:58:14;;;;;;;10.97;5.50;;;10.30;99.90;;;;;;4997103;28;20934;-67
2021/12/15 09:00:43;;;;;;;8.23;5.17;;;10.30;99.90;;;;;;4992009;28;20898;-71
2021/12/15 09:03:11;;;;;;;17.60;8.37;;;10.30;99.90;;;;;;4988600;28;20517;-69
2021/12/15 09:05:41;;;;;;;7.43;3.40;;;10.40;99.90;;;;;;4988982;28;20461;-72
2021/12/15 09:08:10;;;;;;;12.63;6.80;;;10.40;99.90;;;;;;4986977;28;21255;-69
2021/12/15 09:10:40;;;;;;;12.10;4.83;;;10.30;99.90;;;;;;4988148;28;20470;-68
2021/12/15 09:13:08;;;;;;;13.63;8.73;;;10.40;99.90;;;;;;4989779;28;20971;-68
2021/12/15 09:15:36;;;;;;;17.67;9.87;;;10.40;99.90;;;;;;4971416;28;20589;-69
2021/12/15 09:18:03;;;;;;;11.20;5.37;;;10.40;99.90;;;;;;4986675;28;20494;-69
2021/12/15 09:20:33;;;;;;;17.67;9.00;;;10.40;99.90;;;;;;4988586;28;20562;-70
2021/12/15 09:23:06;;;;;;;11.80;6.00;;;10.30;99.90;;;;;;4985730;28;20474;-69
2021/12/15 09:25:33;;;;;;;10.90;5.90;;;10.30;99.90;;;;;;4987268;28;20472;-70
2021/12/15 09:28:00;;;;;;;18.23;10.10;;;10.30;99.90;;;;;;4986562;28;20493;-69
2021/12/15 09:30:30;;;;;;;17.83;9.17;;;10.20;99.90;;;;;;4989179;28;20475;-69
2021/12/15 09:32:58;;;;;;;14.50;7.67;;;10.30;99.90;;;;;;4987403;28;20554;-71
2021/12/15 09:35:30;;;;;;;12.33;6.13;;;10.40;99.90;;;;;;4984795;28;20489;-70
2021/12/15 09:37:57;;;;;;;7.03;5.10;;;10.30;99.90;;;;;;4987715;28;20467;-69
2021/12/15 09:40:26;;;;;;;16.13;8.77;;;10.40;99.90;;;;;;4980340;28;20501;-69
2021/12/15 09:42:53;;;;;;;20.53;8.57;;;10.40;99.90;;;;;;4989732;28;20469;-69
2021/12/15 09:45:31;;;;;;;16.40;7.23;;;10.40;99.90;;;;;;4983018;28;21270;-69
2021/12/15 09:56:21;;;;;;;19.67;9.47;;;10.40;99.90;;;;;;4989288;28;20568;-69
2021/12/15 10:02:08;;;;;;;19.50;8.67;;;10.40;99.90;;;;;;4979424;28;20433;-68
2021/12/15 10:04:43;;;;;;;27.20;10.00;;;10.50;99.90;;;;;;4983326;28;20803;-69
2021/12/15 10:10:38;;;;;;;12.53;7.40;;;10.50;99.90;;;;;;4987417;28;20427;-69
2021/12/15 10:18:34;;;;;;;15.60;9.27;;;10.50;99.90;;;;;;4981669;28;20831;-71
2021/12/15 10:21:01;;;;;;;16.67;9.33;;;10.40;99.90;;;;;;4986066;28;20447;-70
2021/12/15 10:23:35;;;;;;;14.23;7.30;;;10.50;99.90;;;;;;4991077;28;20580;-70
2021/12/15 10:26:06;;;;;;;17.37;8.63;;;10.60;99.90;;;;;;4987810;28;20493;-71
2021/12/15 10:28:38;;;;;;;14.73;6.47;;;10.50;99.90;;;;;;4990646;28;21090;-70
2021/12/15 10:31:08;;;;;;;20.83;10.37;;;10.60;99.90;;;;;;4987204;28;20448;-70
2021/12/15 10:33:38;;;;;;;12.13;7.37;;;10.60;99.90;;;;;;4984403;28;20536;-70
2021/12/15 10:36:07;;;;;;;10.47;6.63;;;10.50;99.90;;;;;;4985709;28;20450;-70
2021/12/15 10:38:39;;;;;;;16.37;8.07;;;10.50;99.90;;;;;;4989760;28;20463;-70
2021/12/15 10:41:09;;;;;;;17.13;8.33;;;10.60;99.90;;;;;;4997191;28;20521;-70
2021/12/15 10:43:41;;;;;;;19.03;10.70;;;10.50;99.90;;;;;;4991411;28;21240;-70
2021/12/15 10:46:10;;;;;;;20.37;10.17;;;10.50;99.90;;;;;;4981020;28;20489;-70
2021/12/15 10:48:49;;;;;;;14.10;7.30;;;10.50;99.90;;;;;;4983211;28;20596;-71
2021/12/15 10:51:30;;;;;;;14.53;9.20;;;10.50;99.90;;;;;;4985529;28;20973;-70
2021/12/15 10:54:00;;;;;;;10.27;6.60;;;10.40;99.90;;;;;;4983551;28;20484;-70
2021/12/15 10:56:31;;;;;;;15.33;6.77;;;10.50;99.90;;;;;;4957734;28;20567;-70
2021/12/15 10:59:04;;;;;;;14.50;8.60;;;10.50;99.90;;;;;;4979534;28;20504;-72
2021/12/15 11:01:45;;;;;;;12.47;6.07;;;10.40;99.90;;;;;;4985297;28;20461;-71
2021/12/15 11:04:44;;;;;;;20.80;10.30;;;10.60;99.90;;;;;;4977358;28;20479;-69
2021/12/15 11:07:23;;;;;;;19.70;9.40;;;10.60;99.90;;;;;;4981403;28;21828;-69
2021/12/15 11:09:54;;;;;;;16.93;8.80;;;10.70;99.90;;;;;;4980009;28;20486;-69
2021/12/15 11:12:24;;;;;;;18.97;10.00;;;10.70;99.90;;;;;;4979630;28;20588;-68
2021/12/15 11:14:57;;;;;;;16.97;8.73;;;10.60;99.90;;;;;;4979000;28;20577;-70
2021/12/15 11:17:26;;;;;;;22.43;8.30;;;10.50;99.90;;;;;;4984423;28;20458;-68
2021/12/15 11:19:59;;;;;;;12.10;7.10;;;10.50;99.90;;;;;;4988173;28;20450;-68
2021/12/15 11:22:46;;;;;;;18.43;8.93;;;10.60;99.90;;;;;;4981897;28;22600;-68
2021/12/15 11:25:19;;;;;;;21.63;11.37;;;10.70;99.90;;;;;;4976090;28;20487;-68
2021/12/15 11:27:50;;;;;;;16.43;8.40;;;10.70;99.90;;;;;;4976246;28;20480;-69
2021/12/15 11:30:23;;;;;;;22.27;9.40;;;10.60;99.90;;;;;;4980330;28;20991;-69
2021/12/15 11:32:53;;;;;;;16.03;6.80;;;10.60;99.90;;;;;;4985371;28;20485;-69
2021/12/15 11:35:24;;;;;;;29.13;10.37;;;10.50;99.90;;;;;;4965785;28;20906;-69
2021/12/15 11:37:56;;;;;;;14.93;8.07;;;10.50;99.90;;;;;;4980828;28;20876;-69
2021/12/15 11:40:33;;;;;;;18.93;9.33;;;10.50;99.90;;;;;;4973953;28;20890;-68
2021/12/15 11:43:02;;;;;;;22.50;9.97;;;10.60;99.90;;;;;;4956917;28;20582;-69
2021/12/15 11:45:31;;;;;;;15.93;10.40;;;10.60;99.90;;;;;;4963353;28;20569;-69
2021/12/15 11:48:20;;;;;;;12.60;7.33;;;10.60;99.90;;;;;;4965355;28;20557;-70
2021/12/15 11:50:49;;;;;;;17.57;7.60;;;10.50;99.90;;;;;;4975194;28;20958;-68
2021/12/15 11:53:38;;;;;;;19.13;9.30;;;10.60;99.90;;;;;;4969129;28;20935;-69
2021/12/15 11:56:22;;;;;;;29.50;11.13;;;10.60;99.90;;;;;;4966528;28;20965;-68
2021/12/15 11:58:53;;;;;;;21.90;9.90;;;10.60;99.90;;;;;;4975304;28;20441;-70
2021/12/15 12:01:44;;;;;;;19.43;8.93;;;10.60;99.90;;;;;;4971460;28;21313;-70
2021/12/15 12:04:26;;;;;;;13.43;8.27;;;10.70;99.90;;;;;;4971728;28;20561;-70
2021/12/15 12:06:57;;;;;;;19.70;11.23;;;10.70;99.90;;;;;;4983395;28;20497;-71
2021/12/15 12:09:25;;;;;;;18.33;9.43;;;10.60;99.90;;;;;;4977421;28;20581;-69
2021/12/15 12:11:58;;;;;;;18.10;8.10;;;10.60;99.90;;;;;;4976602;28;20449;-71
2021/12/15 12:14:43;;;;;;;12.23;8.53;;;10.60;99.90;;;;;;4956862;28;20477;-70
2021/12/15 12:17:14;;;;;;;23.77;12.27;;;10.70;99.90;;;;;;4979727;28;20554;-71
2021/12/15 12:19:47;;;;;;;22.00;12.03;;;10.70;99.90;;;;;;4974783;28;21020;-70
2021/12/15 12:22:17;;;;;;;9.13;5.47;;;10.70;99.90;;;;;;4981570;28;20949;-68
2021/12/15 12:24:46;;;;;;;23.53;8.67;;;10.60;99.90;;;;;;4979685;28;20492;-70
2021/12/15 12:27:14;;;;;;;32.00;9.17;;;10.60;99.90;;;;;;4975903;28;20466;-69
2021/12/15 12:29:43;;;;;;;22.80;11.90;;;10.70;99.90;;;;;;4980164;28;21112;-69
2021/12/15 12:32:12;;;;;;;20.00;10.27;;;10.70;99.90;;;;;;4986076;28;20997;-71
2021/12/15 12:34:40;;;;;;;17.03;9.73;;;10.70;99.90;;;;;;4980964;28;20465;-69
2021/12/15 12:37:08;;;;;;;20.90;9.67;;;10.80;99.90;;;;;;4977675;28;20458;-69
2021/12/15 12:39:38;;;;;;;13.93;8.70;;;10.70;99.90;;;;;;4981522;28;20777;-67
2021/12/15 12:42:06;;;;;;;25.40;12.13;;;10.70;99.90;;;;;;4980685;28;20467;-70
2021/12/15 12:44:37;;;;;;;30.20;11.93;;;10.80;99.90;;;;;;4979744;28;20466;-69
2021/12/15 12:47:10;;;;;;;17.27;10.33;;;10.80;99.90;;;;;;4974009;28;20548;-69
2021/12/15 12:50:06;;;;;;;20.60;11.00;;;10.80;99.90;;;;;;4988282;28;20570;-69
2021/12/15 13:01:20;;;;;;;15.07;6.83;;;10.70;99.90;;;;;;4975749;28;21020;-71
2021/12/15 13:03:53;;;;;;;16.30;9.80;;;10.80;99.90;;;;;;4987924;28;20551;-69
2021/12/15 13:06:24;;;;;;;17.40;10.00;;;10.80;99.90;;;;;;4981618;28;20473;-69
2021/12/15 13:08:55;;;;;;;22.30;9.93;;;10.80;99.90;;;;;;4981254;28;20506;-70
2021/12/15 13:11:34;;;;;;;24.40;11.07;;;10.80;99.90;;;;;;4978115;28;20446;-69
2021/12/15 13:14:06;;;;;;;19.77;9.30;;;10.90;99.90;;;;;;4979937;28;20473;-69
2021/12/15 13:16:39;;;;;;;25.20;12.10;;;10.80;99.90;;;;;;4979677;28;20473;-68
2021/12/15 13:19:21;;;;;;;13.63;9.60;;;10.90;99.90;;;;;;4985964;28;20477;-71
2021/12/15 13:22:00;;;;;;;19.43;10.57;;;11.00;99.90;;;;;;4983981;28;20445;-70
2021/12/15 13:30:38;;;;;;;20.30;11.90;;;11.00;99.90;;;;;;4983847;28;20985;-70
2021/12/15 13:33:12;;;;;;;21.07;11.00;;;11.00;99.90;;;;;;4983819;28;20473;-70
2021/12/15 13:35:43;;;;;;;17.37;10.07;;;11.00;99.90;;;;;;4972273;28;21284;-70
2021/12/15 13:38:14;;;;;;;15.70;7.90;;;11.00;99.90;;;;;;4975061;28;20522;-70
2021/12/15 13:41:18;;;;;;;23.87;11.57;;;11.00;99.90;;;;;;4980360;28;20555;-71
2021/12/15 13:43:50;;;;;;;20.80;12.63;;;11.00;99.90;;;;;;4974094;28;20497;-69
2021/12/15 13:46:38;;;;;;;23.33;10.90;;;11.00;99.90;;;;;;4982023;28;20448;-68
2021/12/15 13:49:23;;;;;;;22.30;11.37;;;11.00;99.90;;;;;;4979921;28;20850;-69
2021/12/15 13:51:57;;;;;;;17.83;10.67;;;11.10;99.90;;;;;;4982133;28;20484;-69
2021/12/15 13:55:11;;;;;;;15.80;6.63;;;11.00;99.90;;;;;;4983622;28;20516;-70
2021/12/15 13:57:40;;;;;;;9.30;5.70;;;11.00;99.90;;;;;;4984731;28;20544;-72
2021/12/15 14:00:21;;;;;;;21.10;10.87;;;11.00;99.90;;;;;;4984052;28;20455;-69
2021/12/15 14:03:03;;;;;;;24.30;12.60;;;11.00;99.90;;;;;;4976906;28;20457;-69
2021/12/15 14:05:32;;;;;;;23.87;12.07;;;11.00;99.90;;;;;;4985859;28;20544;-68